sensor_id;sensor_type;location;lat;lon;timestamp;pressure;altitude;pressure_sealevel;temperature;humidity
38786;BME280;24535;45.508;12.252;2023-02-28T00:02:13;102187.00;;;7.10;45.94
38786;BME280;24535;45.508;12.252;2023-02-28T00:04:39;102198.34;;;7.11;45.82
38786;BME280;24535;45.508;12.252;2023-02-28T00:07:04;102183.53;;;7.10;46.11
38786;BME280;24535;45.508;12.252;2023-02-28T00:09:30;102186.09;;;7.11;46.35
38786;BME280;24535;45.508;12.252;2023-02-28T00:11:55;102193.06;;;7.12;46.30
38786;BME280;24535;45.508;12.252;2023-02-28T00:14:21;102199.16;;;7.13;46.21
38786;BME280;24535;45.508;12.252;2023-02-28T00:16:46;102192.19;;;7.13;46.09
38786;BME280;24535;45.508;12.252;2023-02-28T00:19:12;102195.66;;;7.14;46.18
38786;BME280;24535;45.508;12.252;2023-02-28T00:21:38;102199.13;;;7.14;46.06
38786;BME280;24535;45.508;12.252;2023-02-28T00:24:06;102201.75;;;7.14;46.14
38786;BME280;24535;45.508;12.252;2023-02-28T00:26:32;102206.94;;;7.16;46.25
38786;BME280;24535;45.508;12.252;2023-02-28T00:28:57;102193.81;;;7.17;45.95
38786;BME280;24535;45.508;12.252;2023-02-28T00:31:23;102199.06;;;7.16;46.04
38786;BME280;24535;45.508;12.252;2023-02-28T00:33:48;102196.41;;;7.17;46.04
38786;BME280;24535;45.508;12.252;2023-02-28T00:36:14;102203.38;;;7.18;45.97
38786;BME280;24535;45.508;12.252;2023-02-28T00:38:40;102206.00;;;7.18;46.40
38786;BME280;24535;45.508;12.252;2023-02-28T00:41:06;102197.19;;;7.21;46.14
38786;BME280;24535;45.508;12.252;2023-02-28T00:43:34;102196.22;;;7.24;45.97
38786;BME280;24535;45.508;12.252;2023-02-28T00:46:00;102190.91;;;7.27;45.73
38786;BME280;24535;45.508;12.252;2023-02-28T00:48:26;102185.59;;;7.28;46.15
38786;BME280;24535;45.508;12.252;2023-02-28T00:50:52;102193.47;;;7.28;46.22
38786;BME280;24535;45.508;12.252;2023-02-28T00:53:18;102190.06;;;7.26;45.70
38786;BME280;24535;45.508;12.252;2023-02-28T00:55:43;102189.19;;;7.26;45.80
38786;BME280;24535;45.508;12.252;2023-02-28T00:58:09;102197.09;;;7.24;46.14
38786;BME280;24535;45.508;12.252;2023-02-28T01:00:34;102186.56;;;7.26;46.55
38786;BME280;24535;45.508;12.252;2023-02-28T01:02:59;102193.53;;;7.27;45.99
38786;BME280;24535;45.508;12.252;2023-02-28T01:05:25;102194.38;;;7.27;46.33
38786;BME280;24535;45.508;12.252;2023-02-28T01:07:50;102194.31;;;7.29;46.27
38786;BME280;24535;45.508;12.252;2023-02-28T01:10:16;102195.22;;;7.29;46.02
38786;BME280;24535;45.508;12.252;2023-02-28T01:12:41;102207.34;;;7.32;45.93
38786;BME280;24535;45.508;12.252;2023-02-28T01:15:10;102211.69;;;7.33;46.29
38786;BME280;24535;45.508;12.252;2023-02-28T01:17:36;102206.34;;;7.36;46.24
38786;BME280;24535;45.508;12.252;2023-02-28T01:20:01;102206.31;;;7.37;45.79
38786;BME280;24535;45.508;12.252;2023-02-28T01:22:27;102209.69;;;7.41;46.59
38786;BME280;24535;45.508;12.252;2023-02-28T01:24:53;102221.72;;;7.48;45.84
38786;BME280;24535;45.508;12.252;2023-02-28T01:27:19;102218.19;;;7.49;45.76
38786;BME280;24535;45.508;12.252;2023-02-28T01:29:44;102215.47;;;7.52;46.25
38786;BME280;24535;45.508;12.252;2023-02-28T01:32:10;102209.22;;;7.56;46.19
38786;BME280;24535;45.508;12.252;2023-02-28T01:34:35;102210.84;;;7.60;45.72
38786;BME280;24535;45.508;12.252;2023-02-28T01:37:01;102213.31;;;7.65;46.27
38786;BME280;24535;45.508;12.252;2023-02-28T01:39:26;102219.41;;;7.67;45.94
38786;BME280;24535;45.508;12.252;2023-02-28T01:41:52;102219.34;;;7.68;45.81
38786;BME280;24535;45.508;12.252;2023-02-28T01:47:21;102219.19;;;7.73;45.90
38786;BME280;24535;45.508;12.252;2023-02-28T01:49:48;102225.28;;;7.75;45.81
38786;BME280;24535;45.508;12.252;2023-02-28T01:52:15;102215.69;;;7.74;46.19
38786;BME280;24535;45.508;12.252;2023-02-28T01:54:45;102213.91;;;7.75;46.27
38786;BME280;24535;45.508;12.252;2023-02-28T01:57:16;102212.19;;;7.74;45.94
38786;BME280;24535;45.508;12.252;2023-02-28T01:59:51;102201.69;;;7.74;45.53
38786;BME280;24535;45.508;12.252;2023-02-28T02:02:19;102204.31;;;7.74;45.92
38786;BME280;24535;45.508;12.252;2023-02-28T02:05:07;102216.41;;;7.78;46.00
38786;BME280;24535;45.508;12.252;2023-02-28T02:07:38;102209.28;;;7.83;46.24
38786;BME280;24535;45.508;12.252;2023-02-28T02:18:29;102203.44;;;8.01;46.24
38786;BME280;24535;45.508;12.252;2023-02-28T02:29:27;102195.53;;;8.03;45.54
38786;BME280;24535;45.508;12.252;2023-02-28T02:40:45;102215.94;;;7.93;45.63
38786;BME280;24535;45.508;12.252;2023-02-28T02:43:19;102218.69;;;7.90;46.12
38786;BME280;24535;45.508;12.252;2023-02-28T02:45:59;102216.19;;;7.85;45.80
38786;BME280;24535;45.508;12.252;2023-02-28T02:48:29;102218.00;;;7.83;45.53
38786;BME280;24535;45.508;12.252;2023-02-28T02:50:59;102217.25;;;7.80;45.08
38786;BME280;24535;45.508;12.252;2023-02-28T02:53:34;102206.81;;;7.78;46.02
38786;BME280;24535;45.508;12.252;2023-02-28T02:56:03;102199.88;;;7.76;45.39
38786;BME280;24535;45.508;12.252;2023-02-28T02:58:37;102202.50;;;7.76;45.73
38786;BME280;24535;45.508;12.252;2023-02-28T03:01:10;102211.25;;;7.76;45.89
38786;BME280;24535;45.508;12.252;2023-02-28T03:03:38;102205.13;;;7.76;45.92
38786;BME280;24535;45.508;12.252;2023-02-28T03:06:04;102205.13;;;7.76;46.29
38786;BME280;24535;45.508;12.252;2023-02-28T03:08:34;102210.38;;;7.76;45.99
38786;BME280;24535;45.508;12.252;2023-02-28T03:11:06;102202.44;;;7.77;45.78
38786;BME280;24535;45.508;12.252;2023-02-28T03:14:03;102206.75;;;7.80;45.82
38786;BME280;24535;45.508;12.252;2023-02-28T03:20:05;102211.81;;;7.86;46.45
38786;BME280;24535;45.508;12.252;2023-02-28T03:25:58;102200.16;;;7.95;45.76
38786;BME280;24535;45.508;12.252;2023-02-28T03:31:50;102204.25;;;8.03;46.07
38786;BME280;24535;45.508;12.252;2023-02-28T03:34:30;102199.81;;;8.05;45.69
38786;BME280;24535;45.508;12.252;2023-02-28T03:37:09;102203.19;;;8.09;45.65
38786;BME280;24535;45.508;12.252;2023-02-28T03:39:41;102201.47;;;8.08;45.77
38786;BME280;24535;45.508;12.252;2023-02-28T03:42:35;102201.53;;;8.06;45.84
38786;BME280;24535;45.508;12.252;2023-02-28T03:45:05;102204.25;;;8.03;45.40
38786;BME280;24535;45.508;12.252;2023-02-28T03:47:53;102209.66;;;7.99;45.76
38786;BME280;24535;45.508;12.252;2023-02-28T03:50:22;102205.41;;;7.95;45.77
38786;BME280;24535;45.508;12.252;2023-02-28T03:53:11;102207.22;;;7.92;45.50
38786;BME280;24535;45.508;12.252;2023-02-28T03:55:43;102205.50;;;7.91;45.55
38786;BME280;24535;45.508;12.252;2023-02-28T03:58:21;102206.47;;;7.89;45.58
38786;BME280;24535;45.508;12.252;2023-02-28T04:00:55;102204.84;;;7.85;45.44
38786;BME280;24535;45.508;12.252;2023-02-28T04:03:22;102211.91;;;7.83;45.53
38786;BME280;24535;45.508;12.252;2023-02-28T04:05:55;102216.31;;;7.82;45.85
38786;BME280;24535;45.508;12.252;2023-02-28T04:08:22;102211.91;;;7.83;45.97
38786;BME280;24535;45.508;12.252;2023-02-28T04:11:21;102208.31;;;7.85;46.50
38786;BME280;24535;45.508;12.252;2023-02-28T04:13:47;102206.53;;;7.87;46.43
38786;BME280;24535;45.508;12.252;2023-02-28T04:16:13;102202.81;;;7.93;45.96
38786;BME280;24535;45.508;12.252;2023-02-28T04:18:39;102203.66;;;7.95;46.08
38786;BME280;24535;45.508;12.252;2023-02-28T04:21:06;102202.59;;;8.01;46.10
38786;BME280;24535;45.508;12.252;2023-02-28T04:23:32;102194.72;;;8.01;45.56
38786;BME280;24535;45.508;12.252;2023-02-28T04:25:57;102188.69;;;7.97;45.67
38786;BME280;24535;45.508;12.252;2023-02-28T04:28:23;102185.28;;;7.95;45.52
38786;BME280;24535;45.508;12.252;2023-02-28T04:30:57;102186.28;;;7.91;45.73
38786;BME280;24535;45.508;12.252;2023-02-28T04:33:23;102188.16;;;7.87;45.65
38786;BME280;24535;45.508;12.252;2023-02-28T04:36:00;102182.16;;;7.84;45.82
38786;BME280;24535;45.508;12.252;2023-02-28T04:38:28;102180.44;;;7.83;45.73
38786;BME280;24535;45.508;12.252;2023-02-28T04:40:57;102180.53;;;7.80;45.93
38786;BME280;24535;45.508;12.252;2023-02-28T04:43:22;102192.81;;;7.78;46.12
38786;BME280;24535;45.508;12.252;2023-02-28T04:45:47;102187.63;;;7.76;45.95
38786;BME280;24535;45.508;12.252;2023-02-28T04:48:13;102181.59;;;7.74;46.04
38786;BME280;24535;45.508;12.252;2023-02-28T04:50:38;102179.00;;;7.73;45.83
38786;BME280;24535;45.508;12.252;2023-02-28T04:53:04;102174.72;;;7.70;46.33
38786;BME280;24535;45.508;12.252;2023-02-28T04:55:29;102183.47;;;7.69;45.66
38786;BME280;24535;45.508;12.252;2023-02-28T04:57:55;102184.34;;;7.69;45.92
38786;BME280;24535;45.508;12.252;2023-02-28T05:00:20;102186.16;;;7.67;46.50
38786;BME280;24535;45.508;12.252;2023-02-28T05:02:46;102191.50;;;7.64;45.83
38786;BME280;24535;45.508;12.252;2023-02-28T05:05:11;102192.41;;;7.63;46.12
38786;BME280;24535;45.508;12.252;2023-02-28T05:07:43;102199.44;;;7.61;46.34
38786;BME280;24535;45.508;12.252;2023-02-28T05:10:10;102194.31;;;7.58;46.06
38786;BME280;24535;45.508;12.252;2023-02-28T05:12:35;102203.13;;;7.56;46.52
38786;BME280;24535;45.508;12.252;2023-02-28T05:15:01;102204.97;;;7.52;45.93
38786;BME280;24535;45.508;12.252;2023-02-28T05:17:27;102200.72;;;7.50;46.16
38786;BME280;24535;45.508;12.252;2023-02-28T05:19:53;102205.97;;;7.48;46.03
38786;BME280;24535;45.508;12.252;2023-02-28T05:22:18;102194.72;;;7.44;46.27
38786;BME280;24535;45.508;12.252;2023-02-28T05:24:44;102198.31;;;7.42;45.88
38786;BME280;24535;45.508;12.252;2023-02-28T05:27:10;102200.16;;;7.38;46.45
38786;BME280;24535;45.508;12.252;2023-02-28T05:29:35;102205.41;;;7.38;46.33
38786;BME280;24535;45.508;12.252;2023-02-28T05:32:11;102208.03;;;7.38;46.34
38786;BME280;24535;45.508;12.252;2023-02-28T05:34:37;102201.94;;;7.38;46.15
38786;BME280;24535;45.508;12.252;2023-02-28T05:37:03;102205.41;;;7.38;46.63
38786;BME280;24535;45.508;12.252;2023-02-28T05:39:29;102215.03;;;7.38;46.46
38786;BME280;24535;45.508;12.252;2023-02-28T05:41:54;102211.56;;;7.37;46.15
38786;BME280;24535;45.508;12.252;2023-02-28T05:44:20;102222.91;;;7.38;46.15
38786;BME280;24535;45.508;12.252;2023-02-28T05:46:45;102221.13;;;7.38;46.36
38786;BME280;24535;45.508;12.252;2023-02-28T05:49:11;102218.53;;;7.37;46.55
38786;BME280;24535;45.508;12.252;2023-02-28T05:51:36;102206.34;;;7.36;46.39
38786;BME280;24535;45.508;12.252;2023-02-28T05:54:05;102219.38;;;7.39;46.51
38786;BME280;24535;45.508;12.252;2023-02-28T05:56:31;102224.53;;;7.42;46.66
38786;BME280;24535;45.508;12.252;2023-02-28T05:58:56;102221.06;;;7.41;46.21
38786;BME280;24535;45.508;12.252;2023-02-28T06:03:56;102228.94;;;7.40;46.22
38786;BME280;24535;45.508;12.252;2023-02-28T06:06:22;102231.56;;;7.40;46.20
38786;BME280;24535;45.508;12.252;2023-02-28T06:08:48;102229.81;;;7.40;46.57
38786;BME280;24535;45.508;12.252;2023-02-28T06:11:14;102235.88;;;7.42;46.92
38786;BME280;24535;45.508;12.252;2023-02-28T06:13:39;102239.28;;;7.46;46.96
38786;BME280;24535;45.508;12.252;2023-02-28T06:16:06;102238.28;;;7.50;47.03
38786;BME280;24535;45.508;12.252;2023-02-28T06:18:32;102242.53;;;7.54;46.39
38786;BME280;24535;45.508;12.252;2023-02-28T06:20:57;102239.97;;;7.51;46.69
38786;BME280;24535;45.508;12.252;2023-02-28T06:23:23;102246.03;;;7.53;46.29
38786;BME280;24535;45.508;12.252;2023-02-28T06:25:49;102244.28;;;7.54;46.06
38786;BME280;24535;45.508;12.252;2023-02-28T06:28:15;102246.91;;;7.54;46.96
38786;BME280;24535;45.508;12.252;2023-02-28T06:30:40;102244.31;;;7.52;46.21
38786;BME280;24535;45.508;12.252;2023-02-28T06:33:06;102264.22;;;7.59;46.30
38786;BME280;24535;45.508;12.252;2023-02-28T06:35:31;102259.03;;;7.56;46.32
38786;BME280;24535;45.508;12.252;2023-02-28T06:37:57;102252.94;;;7.56;46.57
38786;BME280;24535;45.508;12.252;2023-02-28T06:40:23;102249.56;;;7.52;46.66
38786;BME280;24535;45.508;12.252;2023-02-28T06:42:49;102255.66;;;7.53;46.65
38786;BME280;24535;45.508;12.252;2023-02-28T06:45:14;102252.19;;;7.52;46.92
38786;BME280;24535;45.508;12.252;2023-02-28T06:47:41;102253.03;;;7.53;46.84
38786;BME280;24535;45.508;12.252;2023-02-28T06:50:09;102263.50;;;7.54;46.63
38786;BME280;24535;45.508;12.252;2023-02-28T06:52:35;102266.00;;;7.57;46.42
38786;BME280;24535;45.508;12.252;2023-02-28T06:55:07;102265.13;;;7.58;47.45
38786;BME280;24535;45.508;12.252;2023-02-28T06:57:34;102259.03;;;7.56;46.60
38786;BME280;24535;45.508;12.252;2023-02-28T07:00:04;102266.06;;;7.56;46.34
38786;BME280;24535;45.508;12.252;2023-02-28T07:02:30;102261.72;;;7.55;46.39
38786;BME280;24535;45.508;12.252;2023-02-28T07:04:56;102266.13;;;7.54;46.23
38786;BME280;24535;45.508;12.252;2023-02-28T07:07:22;102258.28;;;7.53;46.85
38786;BME280;24535;45.508;12.252;2023-02-28T07:09:47;102255.78;;;7.50;46.70
38786;BME280;24535;45.508;12.252;2023-02-28T07:12:13;102266.91;;;7.56;47.12
38786;BME280;24535;45.508;12.252;2023-02-28T07:14:38;102255.50;;;7.57;46.75
38786;BME280;24535;45.508;12.252;2023-02-28T07:17:04;102265.13;;;7.58;46.82
38786;BME280;24535;45.508;12.252;2023-02-28T07:19:31;102255.44;;;7.60;46.81
38786;BME280;24535;45.508;12.252;2023-02-28T07:21:57;102263.13;;;7.66;47.13
38786;BME280;24535;45.508;12.252;2023-02-28T07:24:22;102266.38;;;7.75;47.35
38786;BME280;24535;45.508;12.252;2023-02-28T07:26:51;102271.56;;;7.76;47.10
38786;BME280;24535;45.508;12.252;2023-02-28T07:29:16;102266.38;;;7.75;46.89
38786;BME280;24535;45.508;12.252;2023-02-28T07:31:41;102273.28;;;7.77;46.68
38786;BME280;24535;45.508;12.252;2023-02-28T07:34:07;102269.88;;;7.74;46.40
38786;BME280;24535;45.508;12.252;2023-02-28T07:36:32;102265.47;;;7.76;46.79
38786;BME280;24535;45.508;12.252;2023-02-28T07:38:58;102267.19;;;7.77;47.03
38786;BME280;24535;45.508;12.252;2023-02-28T07:41:23;102266.19;;;7.81;46.38
38786;BME280;24535;45.508;12.252;2023-02-28T07:43:53;102262.56;;;7.85;46.56
38786;BME280;24535;45.508;12.252;2023-02-28T07:46:20;102261.41;;;7.93;46.66
38786;BME280;24535;45.508;12.252;2023-02-28T07:48:46;102262.59;;;8.11;48.07
38786;BME280;24535;45.508;12.252;2023-02-28T07:51:12;102263.50;;;8.38;48.00
38786;BME280;24535;45.508;12.252;2023-02-28T07:53:37;102267.97;;;8.61;47.33
38786;BME280;24535;45.508;12.252;2023-02-28T07:56:03;102267.09;;;8.87;47.00
38786;BME280;24535;45.508;12.252;2023-02-28T07:58:30;102265.34;;;9.11;47.55
38786;BME280;24535;45.508;12.252;2023-02-28T08:00:56;102275.59;;;9.43;46.90
38786;BME280;24535;45.508;12.252;2023-02-28T08:03:23;102272.03;;;9.67;46.44
38786;BME280;24535;45.508;12.252;2023-02-28T08:05:48;102265.91;;;9.90;46.19
38786;BME280;24535;45.508;12.252;2023-02-28T08:08:16;102270.09;;;10.16;45.51
38786;BME280;24535;45.508;12.252;2023-02-28T08:10:42;102269.44;;;10.33;45.19
38786;BME280;24535;45.508;12.252;2023-02-28T08:13:07;102265.78;;;10.37;44.97
38786;BME280;24535;45.508;12.252;2023-02-28T08:15:33;102272.88;;;10.35;43.95
38786;BME280;24535;45.508;12.252;2023-02-28T08:17:59;102256.53;;;10.27;43.53
38786;BME280;24535;45.508;12.252;2023-02-28T08:20:25;102271.59;;;10.23;43.62
38786;BME280;24535;45.508;12.252;2023-02-28T08:22:51;102275.34;;;10.18;43.92
38786;BME280;24535;45.508;12.252;2023-02-28T08:25:16;102265.78;;;10.15;43.60
38786;BME280;24535;45.508;12.252;2023-02-28T08:27:42;102271.09;;;10.13;43.86
38786;BME280;24535;45.508;12.252;2023-02-28T08:30:11;102272.16;;;10.09;43.44
38786;BME280;24535;45.508;12.252;2023-02-28T08:32:36;102260.16;;;10.02;43.60
38786;BME280;24535;45.508;12.252;2023-02-28T08:35:02;102262.16;;;9.96;43.38
38786;BME280;24535;45.508;12.252;2023-02-28T08:37:28;102274.72;;;9.89;43.53
38786;BME280;24535;45.508;12.252;2023-02-28T08:39:54;102270.50;;;9.85;43.82
38786;BME280;24535;45.508;12.252;2023-02-28T08:42:19;102274.00;;;9.84;43.57
38786;BME280;24535;45.508;12.252;2023-02-28T08:44:45;102275.00;;;9.81;44.06
38786;BME280;24535;45.508;12.252;2023-02-28T08:47:10;102264.53;;;9.80;43.96
38786;BME280;24535;45.508;12.252;2023-02-28T08:49:37;102265.16;;;9.86;44.22
38786;BME280;24535;45.508;12.252;2023-02-28T08:52:03;102262.13;;;9.97;44.36
38786;BME280;24535;45.508;12.252;2023-02-28T08:54:28;102272.88;;;10.13;44.27
38786;BME280;24535;45.508;12.252;2023-02-28T08:56:56;102266.88;;;10.31;43.58
38786;BME280;24535;45.508;12.252;2023-02-28T08:59:22;102274.25;;;10.45;44.05
38786;BME280;24535;45.508;12.252;2023-02-28T09:01:49;102273.66;;;10.59;43.37
38786;BME280;24535;45.508;12.252;2023-02-28T09:04:14;102276.50;;;10.75;43.48
38786;BME280;24535;45.508;12.252;2023-02-28T09:06:40;102272.16;;;10.94;43.77
38786;BME280;24535;45.508;12.252;2023-02-28T09:09:05;102264.06;;;11.18;43.06
38786;BME280;24535;45.508;12.252;2023-02-28T09:11:33;102270.34;;;11.34;42.58
38786;BME280;24535;45.508;12.252;2023-02-28T09:13:59;102264.59;;;11.45;42.68
38786;BME280;24535;45.508;12.252;2023-02-28T09:16:25;102273.88;;;11.53;42.75
38786;BME280;24535;45.508;12.252;2023-02-28T09:18:51;102267.72;;;11.53;42.08
38786;BME280;24535;45.508;12.252;2023-02-28T09:21:18;102277.56;;;11.49;41.96
38786;BME280;24535;45.508;12.252;2023-02-28T09:23:45;102280.34;;;11.46;42.14
38786;BME280;24535;45.508;12.252;2023-02-28T09:26:22;102277.00;;;11.43;41.92
38786;BME280;24535;45.508;12.252;2023-02-28T09:28:48;102285.19;;;11.36;41.37
38786;BME280;24535;45.508;12.252;2023-02-28T09:31:17;102275.44;;;11.38;42.29
38786;BME280;24535;45.508;12.252;2023-02-28T09:33:46;102274.56;;;11.38;42.16
38786;BME280;24535;45.508;12.252;2023-02-28T09:36:12;102264.00;;;11.38;42.00
38786;BME280;24535;45.508;12.252;2023-02-28T09:38:37;102286.84;;;11.39;42.01
38786;BME280;24535;45.508;12.252;2023-02-28T09:41:12;102277.06;;;11.41;41.69
38786;BME280;24535;45.508;12.252;2023-02-28T09:43:43;102269.78;;;11.46;42.05
38786;BME280;24535;45.508;12.252;2023-02-28T09:48:50;102281.16;;;11.67;42.41
38786;BME280;24535;45.508;12.252;2023-02-28T09:54:18;102277.75;;;11.84;41.42
38786;BME280;24535;45.508;12.252;2023-02-28T09:56:50;102271.25;;;11.91;41.77
38786;BME280;24535;45.508;12.252;2023-02-28T10:04:48;102275.25;;;12.36;41.23
38786;BME280;24535;45.508;12.252;2023-02-28T10:08:14;102273.69;;;12.49;40.83
38786;BME280;24535;45.508;12.252;2023-02-28T10:10:26;102278.03;;;12.68;41.34
38786;BME280;24535;45.508;12.252;2023-02-28T10:12:55;102279.28;;;12.78;41.22
38786;BME280;24535;45.508;12.252;2023-02-28T10:15:23;102284.47;;;12.79;40.71
38786;BME280;24535;45.508;12.252;2023-02-28T10:17:53;102272.28;;;12.77;39.57
38786;BME280;24535;45.508;12.252;2023-02-28T10:20:20;102290.00;;;12.75;40.46
38786;BME280;24535;45.508;12.252;2023-02-28T10:23:03;102269.34;;;12.66;40.32
38786;BME280;24535;45.508;12.252;2023-02-28T10:25:34;102270.91;;;12.52;39.53
38786;BME280;24535;45.508;12.252;2023-02-28T10:28:09;102271.41;;;12.42;40.45
38786;BME280;24535;45.508;12.252;2023-02-28T10:30:39;102279.59;;;12.37;40.59
38786;BME280;24535;45.508;12.252;2023-02-28T10:33:05;102281.59;;;12.32;40.37
38786;BME280;24535;45.508;12.252;2023-02-28T10:35:30;102281.59;;;12.32;40.71
38786;BME280;24535;45.508;12.252;2023-02-28T10:38:00;102286.94;;;12.30;40.18
38786;BME280;24535;45.508;12.252;2023-02-28T10:40:35;102281.75;;;12.29;39.90
38786;BME280;24535;45.508;12.252;2023-02-28T10:43:04;102272.03;;;12.29;39.81
38786;BME280;24535;45.508;12.252;2023-02-28T10:45:32;102272.97;;;12.28;40.34
38786;BME280;24535;45.508;12.252;2023-02-28T10:48:06;102264.81;;;12.33;40.26
38786;BME280;24535;45.508;12.252;2023-02-28T11:00:56;102255.84;;;12.35;40.05
38786;BME280;24535;45.508;12.252;2023-02-28T11:03:34;102252.59;;;12.30;39.98
38786;BME280;24535;45.508;12.252;2023-02-28T11:06:08;102253.63;;;12.28;39.94
38786;BME280;24535;45.508;12.252;2023-02-28T11:09:05;102251.25;;;12.22;40.41
38786;BME280;24535;45.508;12.252;2023-02-28T11:11:45;102241.22;;;12.11;39.99
38786;BME280;24535;45.508;12.252;2023-02-28T11:14:20;102243.94;;;12.09;40.36
38786;BME280;24535;45.508;12.252;2023-02-28T11:16:46;102226.53;;;12.05;40.16
38786;BME280;24535;45.508;12.252;2023-02-28T11:19:38;102234.38;;;12.07;40.30
38786;BME280;24535;45.508;12.252;2023-02-28T11:22:05;102231.06;;;12.03;40.06
38786;BME280;24535;45.508;12.252;2023-02-28T11:24:37;102233.69;;;12.03;40.20
38786;BME280;24535;45.508;12.252;2023-02-28T11:27:26;102225.59;;;12.06;40.97
38786;BME280;24535;45.508;12.252;2023-02-28T11:30:33;102221.16;;;12.07;40.78
38786;BME280;24535;45.508;12.252;2023-02-28T11:32:58;102219.41;;;12.07;41.15
38786;BME280;24535;45.508;12.252;2023-02-28T11:35:33;102205.25;;;12.08;40.53
38786;BME280;24535;45.508;12.252;2023-02-28T11:38:00;102200.75;;;12.10;40.94
38786;BME280;24535;45.508;12.252;2023-02-28T11:46:18;102197.66;;;12.20;40.82
38786;BME280;24535;45.508;12.252;2023-02-28T11:49:17;102179.00;;;12.23;40.81
38786;BME280;24535;45.508;12.252;2023-02-28T11:57:19;102170.44;;;12.18;40.91
38786;BME280;24535;45.508;12.252;2023-02-28T12:00:05;102175.66;;;12.19;41.22
38786;BME280;24535;45.508;12.252;2023-02-28T12:10:49;102168.44;;;12.23;41.10
38786;BME280;24535;45.508;12.252;2023-02-28T12:13:25;102163.78;;;12.28;41.05
38786;BME280;24535;45.508;12.252;2023-02-28T12:21:32;102154.78;;;12.32;40.78
38786;BME280;24535;45.508;12.252;2023-02-28T12:26:34;102146.13;;;12.28;40.62
38786;BME280;24535;45.508;12.252;2023-02-28T12:29:10;102142.66;;;12.28;41.19
38786;BME280;24535;45.508;12.252;2023-02-28T12:31:46;102126.09;;;12.24;40.94
38786;BME280;24535;45.508;12.252;2023-02-28T12:34:19;102137.66;;;12.22;40.94
38786;BME280;24535;45.508;12.252;2023-02-28T12:36:47;102136.81;;;12.21;41.29
38786;BME280;24535;45.508;12.252;2023-02-28T12:39:25;102131.63;;;12.20;41.47
38786;BME280;24535;45.508;12.252;2023-02-28T12:41:55;102135.16;;;12.19;41.29
38786;BME280;24535;45.508;12.252;2023-02-28T12:46:51;102126.63;;;12.13;41.36
38786;BME280;24535;45.508;12.252;2023-02-28T12:49:28;102121.50;;;12.10;41.20
38786;BME280;24535;45.508;12.252;2023-02-28T12:51:59;102110.03;;;12.11;41.08
38786;BME280;24535;45.508;12.252;2023-02-28T12:57:34;102119.78;;;12.09;41.53
38786;BME280;24535;45.508;12.252;2023-02-28T13:00:12;102115.50;;;12.07;41.69
38786;BME280;24535;45.508;12.252;2023-02-28T13:10:50;102108.84;;;12.00;42.14
38786;BME280;24535;45.508;12.252;2023-02-28T13:13:22;102103.72;;;11.97;42.30
38786;BME280;24535;45.508;12.252;2023-02-28T13:16:05;102095.25;;;11.90;42.62
38786;BME280;24535;45.508;12.252;2023-02-28T13:18:40;102113.81;;;11.88;42.04
38786;BME280;24535;45.508;12.252;2023-02-28T13:21:09;102101.56;;;11.87;42.16
38786;BME280;24535;45.508;12.252;2023-02-28T13:27:10;102104.44;;;11.83;42.59
38786;BME280;24535;45.508;12.252;2023-02-28T13:47:40;102078.06;;;11.81;42.97
38786;BME280;24535;45.508;12.252;2023-02-28T14:01:16;102075.31;;;11.84;43.59
38786;BME280;24535;45.508;12.252;2023-02-28T14:06:33;102073.59;;;11.83;43.49
38786;BME280;24535;45.508;12.252;2023-02-28T14:11:44;102086.13;;;11.78;43.42
38786;BME280;24535;45.508;12.252;2023-02-28T14:17:03;102065.88;;;11.79;43.26
38786;BME280;24535;45.508;12.252;2023-02-28T14:19:31;102068.53;;;11.79;43.34
38786;BME280;24535;45.508;12.252;2023-02-28T14:22:21;102064.16;;;11.78;43.77
38786;BME280;24535;45.508;12.252;2023-02-28T14:25:23;102060.03;;;11.72;43.19
38786;BME280;24535;45.508;12.252;2023-02-28T14:31:10;102051.34;;;11.70;43.39
38786;BME280;24535;45.508;12.252;2023-02-28T14:36:26;102056.84;;;11.66;42.85
38786;BME280;24535;45.508;12.252;2023-02-28T14:38:59;102052.81;;;11.58;43.46
38786;BME280;24535;45.508;12.252;2023-02-28T14:41:38;102037.16;;;11.55;43.92
38786;BME280;24535;45.508;12.252;2023-02-28T14:44:25;102047.69;;;11.55;44.05
38786;BME280;24535;45.508;12.252;2023-02-28T14:49:27;102048.84;;;11.50;44.33
38786;BME280;24535;45.508;12.252;2023-02-28T14:52:13;102042.81;;;11.48;44.71
38786;BME280;24535;45.508;12.252;2023-02-28T14:54:40;102051.56;;;11.48;45.13
38786;BME280;24535;45.508;12.252;2023-02-28T14:57:21;102043.78;;;11.45;44.38
38786;BME280;24535;45.508;12.252;2023-02-28T14:59:55;102050.78;;;11.46;44.56
38786;BME280;24535;45.508;12.252;2023-02-28T15:02:24;102051.72;;;11.45;44.40
38786;BME280;24535;45.508;12.252;2023-02-28T15:04:58;102049.69;;;11.50;45.19
38786;BME280;24535;45.508;12.252;2023-02-28T15:07:24;102048.00;;;11.49;44.56
38786;BME280;24535;45.508;12.252;2023-02-28T15:10:26;102053.41;;;11.46;45.16
38786;BME280;24535;45.508;12.252;2023-02-28T15:12:53;102047.47;;;11.43;44.63
38786;BME280;24535;45.508;12.252;2023-02-28T15:15:21;102056.28;;;11.42;45.41
38786;BME280;24535;45.508;12.252;2023-02-28T15:17:51;102060.72;;;11.41;45.30
38786;BME280;24535;45.508;12.252;2023-02-28T15:20:19;102052.03;;;11.39;45.10
38786;BME280;24535;45.508;12.252;2023-02-28T15:22:46;102053.88;;;11.37;44.83
38786;BME280;24535;45.508;12.252;2023-02-28T15:25:15;102051.38;;;11.34;44.94
38786;BME280;24535;45.508;12.252;2023-02-28T15:27:53;102056.66;;;11.34;44.72
38786;BME280;24535;45.508;12.252;2023-02-28T15:30:25;102046.28;;;11.31;45.07
38786;BME280;24535;45.508;12.252;2023-02-28T15:33:22;102048.06;;;11.30;45.15